sensor_id;sensor_type;location;lat;lon;timestamp;P1;durP1;ratioP1;P2;durP2;ratioP2
65581;SDS011;52231;40.090;18.348;2023-04-08T00:04:07;34.58;;;20.70;;
65581;SDS011;52231;40.090;18.348;2023-04-08T00:10:00;33.58;;;19.88;;
65581;SDS011;52231;40.090;18.348;2023-04-08T00:12:49;34.08;;;20.02;;
65581;SDS011;52231;40.090;18.348;2023-04-08T00:15:28;34.45;;;19.83;;
65581;SDS011;52231;40.090;18.348;2023-04-08T00:18:11;33.30;;;19.45;;
65581;SDS011;52231;40.090;18.348;2023-04-08T00:20:45;32.25;;;19.45;;
65581;SDS011;52231;40.090;18.348;2023-04-08T00:23:23;31.77;;;20.48;;
65581;SDS011;52231;40.090;18.348;2023-04-08T00:26:14;34.38;;;19.33;;
65581;SDS011;52231;40.090;18.348;2023-04-08T00:29:04;29.60;;;18.55;;
65581;SDS011;52231;40.090;18.348;2023-04-08T00:31:44;31.13;;;18.60;;
65581;SDS011;52231;40.090;18.348;2023-04-08T00:34:27;29.60;;;18.02;;
65581;SDS011;52231;40.090;18.348;2023-04-08T00:37:17;28.42;;;17.92;;
65581;SDS011;52231;40.090;18.348;2023-04-08T00:39:54;30.60;;;18.20;;
65581;SDS011;52231;40.090;18.348;2023-04-08T00:42:36;33.00;;;19.27;;
65581;SDS011;52231;40.090;18.348;2023-04-08T00:45:16;33.38;;;20.05;;
65581;SDS011;52231;40.090;18.348;2023-04-08T00:48:04;35.80;;;20.67;;
65581;SDS011;52231;40.090;18.348;2023-04-08T00:51:02;30.13;;;18.83;;
65581;SDS011;52231;40.090;18.348;2023-04-08T00:53:46;34.42;;;20.25;;
65581;SDS011;52231;40.090;18.348;2023-04-08T00:56:20;33.20;;;21.38;;
65581;SDS011;52231;40.090;18.348;2023-04-08T00:59:07;37.08;;;22.33;;
65581;SDS011;52231;40.090;18.348;2023-04-08T01:05:12;37.58;;;20.45;;
65581;SDS011;52231;40.090;18.348;2023-04-08T01:08:05;31.25;;;19.85;;
65581;SDS011;52231;40.090;18.348;2023-04-08T01:11:09;36.90;;;20.83;;
65581;SDS011;52231;40.090;18.348;2023-04-08T01:13:56;38.05;;;20.67;;
65581;SDS011;52231;40.090;18.348;2023-04-08T01:16:53;37.40;;;20.33;;
65581;SDS011;52231;40.090;18.348;2023-04-08T01:19:29;41.65;;;21.45;;
65581;SDS011;52231;40.090;18.348;2023-04-08T01:25:07;39.88;;;22.65;;
65581;SDS011;52231;40.090;18.348;2023-04-08T01:30:19;34.20;;;19.23;;
65581;SDS011;52231;40.090;18.348;2023-04-08T01:32:48;35.60;;;20.02;;
65581;SDS011;52231;40.090;18.348;2023-04-08T01:35:21;35.40;;;21.05;;
65581;SDS011;52231;40.090;18.348;2023-04-08T01:40:18;34.33;;;19.30;;
65581;SDS011;52231;40.090;18.348;2023-04-08T01:42:47;35.42;;;19.58;;
65581;SDS011;52231;40.090;18.348;2023-04-08T01:45:17;32.88;;;18.73;;
65581;SDS011;52231;40.090;18.348;2023-04-08T01:47:46;34.33;;;18.52;;
65581;SDS011;52231;40.090;18.348;2023-04-08T01:50:16;31.55;;;18.17;;
65581;SDS011;52231;40.090;18.348;2023-04-08T01:52:46;30.98;;;17.90;;
65581;SDS011;52231;40.090;18.348;2023-04-08T01:55:16;29.98;;;18.17;;
65581;SDS011;52231;40.090;18.348;2023-04-08T01:57:46;29.75;;;18.52;;
65581;SDS011;52231;40.090;18.348;2023-04-08T02:00:19;32.58;;;20.35;;
65581;SDS011;52231;40.090;18.348;2023-04-08T02:02:51;29.60;;;18.05;;
65581;SDS011;52231;40.090;18.348;2023-04-08T02:05:20;32.22;;;18.65;;
65581;SDS011;52231;40.090;18.348;2023-04-08T02:07:49;33.75;;;18.58;;
65581;SDS011;52231;40.090;18.348;2023-04-08T02:10:19;29.83;;;17.40;;
65581;SDS011;52231;40.090;18.348;2023-04-08T02:12:48;28.08;;;17.25;;
65581;SDS011;52231;40.090;18.348;2023-04-08T02:15:16;30.23;;;17.83;;
65581;SDS011;52231;40.090;18.348;2023-04-08T02:20:26;29.17;;;16.90;;
65581;SDS011;52231;40.090;18.348;2023-04-08T02:23:06;28.10;;;15.52;;
65581;SDS011;52231;40.090;18.348;2023-04-08T02:25:43;25.90;;;15.93;;
65581;SDS011;52231;40.090;18.348;2023-04-08T02:28:14;29.50;;;15.63;;
65581;SDS011;52231;40.090;18.348;2023-04-08T02:30:50;26.20;;;15.85;;
65581;SDS011;52231;40.090;18.348;2023-04-08T02:33:20;24.80;;;14.38;;
65581;SDS011;52231;40.090;18.348;2023-04-08T02:35:51;23.55;;;15.13;;
65581;SDS011;52231;40.090;18.348;2023-04-08T02:38:23;25.17;;;14.45;;
65581;SDS011;52231;40.090;18.348;2023-04-08T02:40:56;26.15;;;14.43;;
65581;SDS011;52231;40.090;18.348;2023-04-08T02:43:24;26.73;;;14.10;;
65581;SDS011;52231;40.090;18.348;2023-04-08T02:45:58;28.38;;;14.77;;
65581;SDS011;52231;40.090;18.348;2023-04-08T02:48:30;23.27;;;13.23;;
65581;SDS011;52231;40.090;18.348;2023-04-08T02:50:58;23.10;;;13.55;;
65581;SDS011;52231;40.090;18.348;2023-04-08T02:53:26;25.10;;;14.07;;
65581;SDS011;52231;40.090;18.348;2023-04-08T02:55:54;26.50;;;14.23;;
65581;SDS011;52231;40.090;18.348;2023-04-08T02:58:23;25.23;;;14.07;;
65581;SDS011;52231;40.090;18.348;2023-04-08T03:00:51;25.10;;;14.70;;
65581;SDS011;52231;40.090;18.348;2023-04-08T03:03:19;25.85;;;14.43;;
65581;SDS011;52231;40.090;18.348;2023-04-08T03:05:57;25.02;;;14.18;;
65581;SDS011;52231;40.090;18.348;2023-04-08T03:08:25;22.75;;;15.18;;
65581;SDS011;52231;40.090;18.348;2023-04-08T03:10:54;28.85;;;14.20;;
65581;SDS011;52231;40.090;18.348;2023-04-08T03:13:24;24.17;;;13.95;;
65581;SDS011;52231;40.090;18.348;2023-04-08T03:15:52;25.10;;;14.00;;
65581;SDS011;52231;40.090;18.348;2023-04-08T03:18:21;26.35;;;13.73;;
65581;SDS011;52231;40.090;18.348;2023-04-08T03:20:49;22.90;;;12.80;;
65581;SDS011;52231;40.090;18.348;2023-04-08T03:23:19;27.30;;;14.25;;
65581;SDS011;52231;40.090;18.348;2023-04-08T03:25:47;24.27;;;13.23;;
65581;SDS011;52231;40.090;18.348;2023-04-08T03:28:18;29.55;;;13.32;;
65581;SDS011;52231;40.090;18.348;2023-04-08T03:30:50;23.90;;;12.85;;
65581;SDS011;52231;40.090;18.348;2023-04-08T03:33:19;26.80;;;12.65;;
65581;SDS011;52231;40.090;18.348;2023-04-08T03:35:47;26.00;;;13.55;;
65581;SDS011;52231;40.090;18.348;2023-04-08T03:38:16;21.50;;;12.95;;
65581;SDS011;52231;40.090;18.348;2023-04-08T03:40:45;25.83;;;12.93;;
65581;SDS011;52231;40.090;18.348;2023-04-08T03:43:13;25.55;;;13.60;;
65581;SDS011;52231;40.090;18.348;2023-04-08T03:45:42;25.27;;;13.52;;
65581;SDS011;52231;40.090;18.348;2023-04-08T03:48:10;27.63;;;12.75;;
65581;SDS011;52231;40.090;18.348;2023-04-08T03:50:39;27.30;;;13.43;;
65581;SDS011;52231;40.090;18.348;2023-04-08T03:53:07;23.15;;;12.27;;
65581;SDS011;52231;40.090;18.348;2023-04-08T03:55:37;23.90;;;14.13;;
65581;SDS011;52231;40.090;18.348;2023-04-08T03:58:06;28.80;;;13.68;;
65581;SDS011;52231;40.090;18.348;2023-04-08T04:00:34;22.05;;;13.27;;
65581;SDS011;52231;40.090;18.348;2023-04-08T04:03:03;23.58;;;13.05;;
65581;SDS011;52231;40.090;18.348;2023-04-08T04:05:31;27.20;;;14.30;;
65581;SDS011;52231;40.090;18.348;2023-04-08T04:08:00;24.90;;;14.15;;
65581;SDS011;52231;40.090;18.348;2023-04-08T04:10:28;26.67;;;14.48;;
65581;SDS011;52231;40.090;18.348;2023-04-08T04:12:56;23.08;;;13.52;;
65581;SDS011;52231;40.090;18.348;2023-04-08T04:15:24;27.95;;;13.93;;
65581;SDS011;52231;40.090;18.348;2023-04-08T04:17:52;23.45;;;13.75;;
65581;SDS011;52231;40.090;18.348;2023-04-08T04:20:21;25.00;;;13.38;;
65581;SDS011;52231;40.090;18.348;2023-04-08T04:22:52;24.40;;;14.90;;
65581;SDS011;52231;40.090;18.348;2023-04-08T04:25:42;27.67;;;14.85;;
65581;SDS011;52231;40.090;18.348;2023-04-08T04:28:49;26.15;;;13.90;;
65581;SDS011;52231;40.090;18.348;2023-04-08T04:35:35;24.95;;;14.35;;
65581;SDS011;52231;40.090;18.348;2023-04-08T04:41:43;23.25;;;13.55;;
65581;SDS011;52231;40.090;18.348;2023-04-08T04:44:21;27.60;;;13.75;;
65581;SDS011;52231;40.090;18.348;2023-04-08T04:46:52;25.40;;;14.30;;
65581;SDS011;52231;40.090;18.348;2023-04-08T04:49:34;26.35;;;14.10;;
65581;SDS011;52231;40.090;18.348;2023-04-08T04:52:03;28.67;;;15.85;;
65581;SDS011;52231;40.090;18.348;2023-04-08T04:54:44;28.20;;;15.13;;
65581;SDS011;52231;40.090;18.348;2023-04-08T04:58:23;25.55;;;13.73;;
65581;SDS011;52231;40.090;18.348;2023-04-08T05:01:19;23.17;;;13.95;;
65581;SDS011;52231;40.090;18.348;2023-04-08T05:03:51;25.40;;;14.63;;
65581;SDS011;52231;40.090;18.348;2023-04-08T05:06:19;23.23;;;13.73;;
65581;SDS011;52231;40.090;18.348;2023-04-08T05:08:49;22.52;;;13.23;;
65581;SDS011;52231;40.090;18.348;2023-04-08T05:11:18;22.73;;;12.70;;
65581;SDS011;52231;40.090;18.348;2023-04-08T05:13:48;21.73;;;12.70;;
65581;SDS011;52231;40.090;18.348;2023-04-08T05:16:16;22.52;;;11.90;;
65581;SDS011;52231;40.090;18.348;2023-04-08T05:18:44;21.30;;;12.63;;
65581;SDS011;52231;40.090;18.348;2023-04-08T05:21:13;24.20;;;13.18;;
65581;SDS011;52231;40.090;18.348;2023-04-08T05:23:44;20.40;;;12.68;;
65581;SDS011;52231;40.090;18.348;2023-04-08T05:26:12;21.45;;;12.77;;
65581;SDS011;52231;40.090;18.348;2023-04-08T05:28:40;24.65;;;14.10;;
65581;SDS011;52231;40.090;18.348;2023-04-08T05:31:09;24.27;;;14.18;;
65581;SDS011;52231;40.090;18.348;2023-04-08T05:33:38;23.70;;;14.65;;
65581;SDS011;52231;40.090;18.348;2023-04-08T05:36:06;23.17;;;13.85;;
65581;SDS011;52231;40.090;18.348;2023-04-08T05:38:35;21.20;;;12.95;;
65581;SDS011;52231;40.090;18.348;2023-04-08T05:41:03;20.80;;;13.15;;
65581;SDS011;52231;40.090;18.348;2023-04-08T05:43:32;21.63;;;13.70;;
65581;SDS011;52231;40.090;18.348;2023-04-08T05:46:07;20.85;;;12.65;;
65581;SDS011;52231;40.090;18.348;2023-04-08T05:48:36;20.38;;;11.40;;
65581;SDS011;52231;40.090;18.348;2023-04-08T05:51:05;21.88;;;12.48;;
65581;SDS011;52231;40.090;18.348;2023-04-08T05:53:33;23.33;;;14.02;;
65581;SDS011;52231;40.090;18.348;2023-04-08T05:56:01;23.27;;;15.48;;
65581;SDS011;52231;40.090;18.348;2023-04-08T05:58:29;21.83;;;13.15;;
65581;SDS011;52231;40.090;18.348;2023-04-08T06:00:57;16.75;;;10.10;;
65581;SDS011;52231;40.090;18.348;2023-04-08T06:03:25;16.27;;;10.10;;
65581;SDS011;52231;40.090;18.348;2023-04-08T06:05:54;13.45;;;8.30;;
65581;SDS011;52231;40.090;18.348;2023-04-08T06:08:22;15.05;;;7.95;;
65581;SDS011;52231;40.090;18.348;2023-04-08T06:10:51;13.23;;;8.60;;
65581;SDS011;52231;40.090;18.348;2023-04-08T06:13:19;13.98;;;8.43;;
65581;SDS011;52231;40.090;18.348;2023-04-08T06:15:48;14.90;;;8.02;;
65581;SDS011;52231;40.090;18.348;2023-04-08T06:18:16;11.57;;;6.85;;
65581;SDS011;52231;40.090;18.348;2023-04-08T06:20:45;12.02;;;6.97;;
65581;SDS011;52231;40.090;18.348;2023-04-08T06:23:13;12.48;;;7.20;;
65581;SDS011;52231;40.090;18.348;2023-04-08T06:25:41;12.73;;;6.90;;
65581;SDS011;52231;40.090;18.348;2023-04-08T06:28:09;12.30;;;7.00;;
65581;SDS011;52231;40.090;18.348;2023-04-08T06:30:39;13.52;;;6.80;;
65581;SDS011;52231;40.090;18.348;2023-04-08T06:33:08;13.57;;;5.93;;
65581;SDS011;52231;40.090;18.348;2023-04-08T06:35:36;11.00;;;4.88;;
65581;SDS011;52231;40.090;18.348;2023-04-08T06:38:04;8.25;;;4.45;;
65581;SDS011;52231;40.090;18.348;2023-04-08T06:43:01;4.68;;;2.40;;
65581;SDS011;52231;40.090;18.348;2023-04-08T06:45:38;4.85;;;2.20;;
65581;SDS011;52231;40.090;18.348;2023-04-08T06:48:06;4.35;;;2.08;;
65581;SDS011;52231;40.090;18.348;2023-04-08T06:50:39;6.45;;;2.30;;
65581;SDS011;52231;40.090;18.348;2023-04-08T06:53:12;4.60;;;2.08;;
65581;SDS011;52231;40.090;18.348;2023-04-08T06:55:40;7.22;;;2.13;;
65581;SDS011;52231;40.090;18.348;2023-04-08T06:58:09;3.92;;;2.00;;
65581;SDS011;52231;40.090;18.348;2023-04-08T07:00:37;6.45;;;2.30;;
65581;SDS011;52231;40.090;18.348;2023-04-08T07:03:05;5.57;;;2.25;;
65581;SDS011;52231;40.090;18.348;2023-04-08T07:05:36;6.70;;;2.42;;
65581;SDS011;52231;40.090;18.348;2023-04-08T07:08:08;5.30;;;2.20;;
65581;SDS011;52231;40.090;18.348;2023-04-08T07:10:36;4.95;;;2.03;;
65581;SDS011;52231;40.090;18.348;2023-04-08T07:13:04;5.30;;;2.55;;
65581;SDS011;52231;40.090;18.348;2023-04-08T07:15:36;6.47;;;2.30;;
65581;SDS011;52231;40.090;18.348;2023-04-08T07:18:13;8.25;;;2.30;;
65581;SDS011;52231;40.090;18.348;2023-04-08T07:20:42;6.97;;;2.42;;
65581;SDS011;52231;40.090;18.348;2023-04-08T07:23:10;5.70;;;1.92;;
65581;SDS011;52231;40.090;18.348;2023-04-08T07:25:38;7.18;;;2.00;;
65581;SDS011;52231;40.090;18.348;2023-04-08T07:28:15;5.10;;;2.30;;
65581;SDS011;52231;40.090;18.348;2023-04-08T07:30:51;4.38;;;2.15;;
65581;SDS011;52231;40.090;18.348;2023-04-08T07:33:19;6.35;;;2.38;;
65581;SDS011;52231;40.090;18.348;2023-04-08T07:35:54;5.20;;;2.00;;
65581;SDS011;52231;40.090;18.348;2023-04-08T07:38:23;7.90;;;2.47;;
65581;SDS011;52231;40.090;18.348;2023-04-08T07:40:51;3.80;;;1.80;;
65581;SDS011;52231;40.090;18.348;2023-04-08T07:45:48;4.93;;;2.03;;
65581;SDS011;52231;40.090;18.348;2023-04-08T07:48:23;3.60;;;1.88;;
65581;SDS011;52231;40.090;18.348;2023-04-08T07:53:19;4.85;;;2.20;;
65581;SDS011;52231;40.090;18.348;2023-04-08T07:55:48;3.15;;;1.98;;
65581;SDS011;52231;40.090;18.348;2023-04-08T07:58:19;5.22;;;2.17;;
65581;SDS011;52231;40.090;18.348;2023-04-08T08:03:16;3.97;;;2.05;;
65581;SDS011;52231;40.090;18.348;2023-04-08T08:05:44;5.05;;;2.28;;
65581;SDS011;52231;40.090;18.348;2023-04-08T08:10:40;5.60;;;2.20;;
65581;SDS011;52231;40.090;18.348;2023-04-08T08:13:08;6.00;;;1.83;;
65581;SDS011;52231;40.090;18.348;2023-04-08T08:15:39;4.82;;;1.95;;
65581;SDS011;52231;40.090;18.348;2023-04-08T08:18:07;5.00;;;2.10;;
65581;SDS011;52231;40.090;18.348;2023-04-08T08:20:36;6.68;;;1.98;;
65581;SDS011;52231;40.090;18.348;2023-04-08T08:23:04;5.40;;;2.28;;
65581;SDS011;52231;40.090;18.348;2023-04-08T08:25:32;6.70;;;2.13;;
65581;SDS011;52231;40.090;18.348;2023-04-08T08:28:03;6.75;;;2.05;;
65581;SDS011;52231;40.090;18.348;2023-04-08T08:30:32;4.95;;;2.10;;
65581;SDS011;52231;40.090;18.348;2023-04-08T08:33:01;5.22;;;2.30;;
65581;SDS011;52231;40.090;18.348;2023-04-08T08:35:29;3.50;;;2.00;;
65581;SDS011;52231;40.090;18.348;2023-04-08T08:37:57;4.13;;;2.13;;
65581;SDS011;52231;40.090;18.348;2023-04-08T08:40:26;4.38;;;1.90;;
65581;SDS011;52231;40.090;18.348;2023-04-08T08:42:56;3.28;;;1.90;;
65581;SDS011;52231;40.090;18.348;2023-04-08T08:45:26;5.85;;;2.00;;
65581;SDS011;52231;40.090;18.348;2023-04-08T08:47:55;4.57;;;2.13;;
65581;SDS011;52231;40.090;18.348;2023-04-08T08:50:24;4.50;;;2.13;;
65581;SDS011;52231;40.090;18.348;2023-04-08T08:55:22;4.85;;;2.20;;
65581;SDS011;52231;40.090;18.348;2023-04-08T08:57:53;4.35;;;2.10;;
65581;SDS011;52231;40.090;18.348;2023-04-08T09:00:35;5.90;;;2.78;;
65581;SDS011;52231;40.090;18.348;2023-04-08T09:03:18;5.05;;;2.63;;
65581;SDS011;52231;40.090;18.348;2023-04-08T09:05:54;5.30;;;2.50;;
65581;SDS011;52231;40.090;18.348;2023-04-08T09:11:14;6.68;;;3.15;;
65581;SDS011;52231;40.090;18.348;2023-04-08T09:13:51;7.80;;;2.85;;
65581;SDS011;52231;40.090;18.348;2023-04-08T09:16:20;7.53;;;2.67;;
65581;SDS011;52231;40.090;18.348;2023-04-08T09:18:49;5.45;;;2.83;;
65581;SDS011;52231;40.090;18.348;2023-04-08T09:21:21;7.53;;;2.90;;
65581;SDS011;52231;40.090;18.348;2023-04-08T09:23:51;7.55;;;3.08;;
65581;SDS011;52231;40.090;18.348;2023-04-08T09:26:21;8.75;;;4.30;;
65581;SDS011;52231;40.090;18.348;2023-04-08T09:29:00;7.32;;;3.40;;
65581;SDS011;52231;40.090;18.348;2023-04-08T09:31:36;8.40;;;3.85;;
65581;SDS011;52231;40.090;18.348;2023-04-08T09:34:16;10.93;;;5.13;;
65581;SDS011;52231;40.090;18.348;2023-04-08T09:36:47;9.27;;;4.28;;
65581;SDS011;52231;40.090;18.348;2023-04-08T09:39:20;8.90;;;4.50;;
65581;SDS011;52231;40.090;18.348;2023-04-08T09:41:51;12.52;;;3.90;;
65581;SDS011;52231;40.090;18.348;2023-04-08T09:44:21;9.05;;;4.03;;
65581;SDS011;52231;40.090;18.348;2023-04-08T09:47:35;7.80;;;3.65;;
65581;SDS011;52231;40.090;18.348;2023-04-08T09:49:54;8.13;;;4.13;;
65581;SDS011;52231;40.090;18.348;2023-04-08T09:58:10;8.20;;;3.70;;
65581;SDS011;52231;40.090;18.348;2023-04-08T10:00:52;9.20;;;3.65;;
65581;SDS011;52231;40.090;18.348;2023-04-08T10:03:28;8.23;;;3.40;;
65581;SDS011;52231;40.090;18.348;2023-04-08T10:06:05;8.13;;;3.55;;
65581;SDS011;52231;40.090;18.348;2023-04-08T10:08:39;8.63;;;4.20;;
65581;SDS011;52231;40.090;18.348;2023-04-08T10:11:08;10.15;;;3.45;;
65581;SDS011;52231;40.090;18.348;2023-04-08T10:13:42;9.50;;;3.83;;
65581;SDS011;52231;40.090;18.348;2023-04-08T10:18:53;8.85;;;4.38;;
65581;SDS011;52231;40.090;18.348;2023-04-08T10:21:40;10.10;;;4.78;;
65581;SDS011;52231;40.090;18.348;2023-04-08T10:24:20;9.00;;;3.75;;
65581;SDS011;52231;40.090;18.348;2023-04-08T10:26:52;7.95;;;3.50;;
65581;SDS011;52231;40.090;18.348;2023-04-08T10:31:57;7.68;;;3.22;;
65581;SDS011;52231;40.090;18.348;2023-04-08T10:34:26;7.13;;;3.30;;
65581;SDS011;52231;40.090;18.348;2023-04-08T10:36:57;7.63;;;3.22;;
65581;SDS011;52231;40.090;18.348;2023-04-08T10:39:49;9.82;;;3.47;;
65581;SDS011;52231;40.090;18.348;2023-04-08T10:42:25;6.25;;;2.92;;
65581;SDS011;52231;40.090;18.348;2023-04-08T10:45:02;5.95;;;2.83;;
65581;SDS011;52231;40.090;18.348;2023-04-08T10:47:30;5.25;;;2.63;;
65581;SDS011;52231;40.090;18.348;2023-04-08T10:52:27;5.88;;;2.78;;
65581;SDS011;52231;40.090;18.348;2023-04-08T10:54:55;8.02;;;3.17;;
65581;SDS011;52231;40.090;18.348;2023-04-08T10:57:24;5.95;;;2.85;;
65581;SDS011;52231;40.090;18.348;2023-04-08T10:59:53;9.65;;;3.25;;
65581;SDS011;52231;40.090;18.348;2023-04-08T11:02:21;6.05;;;2.80;;
65581;SDS011;52231;40.090;18.348;2023-04-08T11:04:58;6.30;;;3.35;;
65581;SDS011;52231;40.090;18.348;2023-04-08T11:07:27;8.13;;;4.30;;
65581;SDS011;52231;40.090;18.348;2023-04-08T11:09:55;8.27;;;3.00;;
65581;SDS011;52231;40.090;18.348;2023-04-08T11:12:23;7.28;;;3.03;;
65581;SDS011;52231;40.090;18.348;2023-04-08T11:14:56;7.10;;;2.90;;
65581;SDS011;52231;40.090;18.348;2023-04-08T11:17:27;6.82;;;3.00;;
65581;SDS011;52231;40.090;18.348;2023-04-08T11:19:58;6.43;;;3.05;;
65581;SDS011;52231;40.090;18.348;2023-04-08T11:22:29;5.28;;;2.33;;
65581;SDS011;52231;40.090;18.348;2023-04-08T11:25:03;7.50;;;2.45;;
65581;SDS011;52231;40.090;18.348;2023-04-08T11:27:34;8.73;;;2.83;;
65581;SDS011;52231;40.090;18.348;2023-04-08T11:30:04;17.40;;;8.05;;
65581;SDS011;52231;40.090;18.348;2023-04-08T11:32:34;6.70;;;2.75;;
65581;SDS011;52231;40.090;18.348;2023-04-08T11:35:04;7.38;;;3.03;;
65581;SDS011;52231;40.090;18.348;2023-04-08T11:37:39;4.60;;;2.38;;
65581;SDS011;52231;40.090;18.348;2023-04-08T11:40:09;6.10;;;2.30;;
65581;SDS011;52231;40.090;18.348;2023-04-08T11:42:38;4.63;;;2.55;;
65581;SDS011;52231;40.090;18.348;2023-04-08T11:47:39;5.75;;;2.72;;
65581;SDS011;52231;40.090;18.348;2023-04-08T11:50:08;5.78;;;2.40;;
65581;SDS011;52231;40.090;18.348;2023-04-08T11:57:55;5.25;;;2.65;;
65581;SDS011;52231;40.090;18.348;2023-04-08T12:00:32;6.75;;;2.80;;
65581;SDS011;52231;40.090;18.348;2023-04-08T12:03:01;7.45;;;2.95;;
65581;SDS011;52231;40.090;18.348;2023-04-08T12:05:29;6.88;;;3.20;;
65581;SDS011;52231;40.090;18.348;2023-04-08T12:07:58;8.00;;;3.25;;
65581;SDS011;52231;40.090;18.348;2023-04-08T12:12:56;9.27;;;2.88;;
65581;SDS011;52231;40.090;18.348;2023-04-08T12:15:25;8.10;;;3.40;;
65581;SDS011;52231;40.090;18.348;2023-04-08T12:20:21;8.85;;;2.92;;
65581;SDS011;52231;40.090;18.348;2023-04-08T12:22:52;7.88;;;3.33;;
65581;SDS011;52231;40.090;18.348;2023-04-08T12:25:21;6.18;;;2.33;;
65581;SDS011;52231;40.090;18.348;2023-04-08T12:27:56;8.50;;;2.88;;
65581;SDS011;52231;40.090;18.348;2023-04-08T12:30:25;5.13;;;2.45;;
65581;SDS011;52231;40.090;18.348;2023-04-08T12:32:53;7.13;;;2.55;;
65581;SDS011;52231;40.090;18.348;2023-04-08T12:37:49;6.03;;;2.65;;
65581;SDS011;52231;40.090;18.348;2023-04-08T12:40:21;6.75;;;2.63;;
65581;SDS011;52231;40.090;18.348;2023-04-08T12:42:52;10.50;;;4.20;;
65581;SDS011;52231;40.090;18.348;2023-04-08T12:45:22;26.20;;;10.23;;
65581;SDS011;52231;40.090;18.348;2023-04-08T12:47:52;6.65;;;3.10;;
65581;SDS011;52231;40.090;18.348;2023-04-08T12:52:49;9.07;;;3.67;;
65581;SDS011;52231;40.090;18.348;2023-04-08T12:55:18;7.70;;;3.00;;
65581;SDS011;52231;40.090;18.348;2023-04-08T12:57:46;5.63;;;2.83;;
65581;SDS011;52231;40.090;18.348;2023-04-08T13:00:14;9.35;;;3.38;;
65581;SDS011;52231;40.090;18.348;2023-04-08T13:02:43;8.25;;;3.20;;
65581;SDS011;52231;40.090;18.348;2023-04-08T13:05:12;8.40;;;3.25;;
65581;SDS011;52231;40.090;18.348;2023-04-08T13:07:41;9.32;;;3.35;;
65581;SDS011;52231;40.090;18.348;2023-04-08T13:10:12;8.65;;;4.03;;
65581;SDS011;52231;40.090;18.348;2023-04-08T13:12:41;6.63;;;3.10;;
65581;SDS011;52231;40.090;18.348;2023-04-08T13:15:12;7.22;;;2.75;;
65581;SDS011;52231;40.090;18.348;2023-04-08T13:17:44;8.85;;;3.05;;
65581;SDS011;52231;40.090;18.348;2023-04-08T13:22:41;9.15;;;3.78;;
65581;SDS011;52231;40.090;18.348;2023-04-08T13:25:10;4.53;;;2.33;;
65581;SDS011;52231;40.090;18.348;2023-04-08T13:27:39;6.05;;;2.67;;
65581;SDS011;52231;40.090;18.348;2023-04-08T13:30:09;7.60;;;3.00;;
65581;SDS011;52231;40.090;18.348;2023-04-08T13:32:40;5.68;;;2.60;;
65581;SDS011;52231;40.090;18.348;2023-04-08T13:37:36;7.10;;;2.90;;
65581;SDS011;52231;40.090;18.348;2023-04-08T13:40:05;5.68;;;2.53;;
65581;SDS011;52231;40.090;18.348;2023-04-08T13:42:35;9.05;;;3.08;;
65581;SDS011;52231;40.090;18.348;2023-04-08T13:45:04;8.35;;;3.28;;
65581;SDS011;52231;40.090;18.348;2023-04-08T13:47:33;8.82;;;4.25;;
65581;SDS011;52231;40.090;18.348;2023-04-08T13:50:02;7.50;;;3.08;;
65581;SDS011;52231;40.090;18.348;2023-04-08T13:52:31;9.38;;;3.00;;
65581;SDS011;52231;40.090;18.348;2023-04-08T13:55:00;7.03;;;3.25;;
65581;SDS011;52231;40.090;18.348;2023-04-08T13:57:29;6.63;;;3.08;;
65581;SDS011;52231;40.090;18.348;2023-04-08T13:59:57;5.90;;;2.58;;
65581;SDS011;52231;40.090;18.348;2023-04-08T14:02:26;6.70;;;2.80;;
65581;SDS011;52231;40.090;18.348;2023-04-08T14:04:55;6.22;;;2.63;;
65581;SDS011;52231;40.090;18.348;2023-04-08T14:07:29;8.15;;;3.13;;
65581;SDS011;52231;40.090;18.348;2023-04-08T14:10:07;7.47;;;2.80;;
65581;SDS011;52231;40.090;18.348;2023-04-08T14:12:46;6.22;;;2.70;;
65581;SDS011;52231;40.090;18.348;2023-04-08T14:15:19;5.00;;;2.60;;
65581;SDS011;52231;40.090;18.348;2023-04-08T14:17:56;7.22;;;2.97;;
65581;SDS011;52231;40.090;18.348;2023-04-08T14:20:25;7.85;;;2.70;;
65581;SDS011;52231;40.090;18.348;2023-04-08T14:25:23;5.15;;;2.80;;
65581;SDS011;52231;40.090;18.348;2023-04-08T14:27:52;5.95;;;2.78;;
65581;SDS011;52231;40.090;18.348;2023-04-08T14:30:24;6.70;;;2.75;;
65581;SDS011;52231;40.090;18.348;2023-04-08T14:32:54;5.78;;;2.40;;
65581;SDS011;52231;40.090;18.348;2023-04-08T14:35:25;7.80;;;3.33;;
65581;SDS011;52231;40.090;18.348;2023-04-08T14:37:54;9.90;;;3.40;;
65581;SDS011;52231;40.090;18.348;2023-04-08T14:40:22;8.98;;;2.63;;
65581;SDS011;52231;40.090;18.348;2023-04-08T14:42:51;9.60;;;3.20;;
65581;SDS011;52231;40.090;18.348;2023-04-08T14:45:20;6.80;;;2.65;;
65581;SDS011;52231;40.090;18.348;2023-04-08T14:50:17;5.15;;;2.63;;
65581;SDS011;52231;40.090;18.348;2023-04-08T14:52:45;5.80;;;2.58;;
65581;SDS011;52231;40.090;18.348;2023-04-08T14:55:15;7.30;;;2.83;;
65581;SDS011;52231;40.090;18.348;2023-04-08T14:57:46;5.85;;;2.50;;
65581;SDS011;52231;40.090;18.348;2023-04-08T15:00:14;8.18;;;3.47;;
65581;SDS011;52231;40.090;18.348;2023-04-08T15:05:11;8.10;;;3.45;;
65581;SDS011;52231;40.090;18.348;2023-04-08T15:07:39;6.60;;;3.20;;
65581;SDS011;52231;40.090;18.348;2023-04-08T15:10:09;7.05;;;3.30;;
65581;SDS011;52231;40.090;18.348;2023-04-08T15:12:37;9.25;;;2.83;;
65581;SDS011;52231;40.090;18.348;2023-04-08T15:15:08;9.00;;;3.10;;
65581;SDS011;52231;40.090;18.348;2023-04-08T15:17:38;5.85;;;2.80;;
65581;SDS011;52231;40.090;18.348;2023-04-08T15:20:07;8.95;;;3.20;;
65581;SDS011;52231;40.090;18.348;2023-04-08T15:22:40;6.60;;;3.00;;
65581;SDS011;52231;40.090;18.348;2023-04-08T15:25:08;9.25;;;3.67;;
65581;SDS011;52231;40.090;18.348;2023-04-08T15:27:37;6.72;;;3.00;;
65581;SDS011;52231;40.090;18.348;2023-04-08T15:30:06;11.32;;;4.20;;
65581;SDS011;52231;40.090;18.348;2023-04-08T15:32:36;7.93;;;3.10;;
65581;SDS011;52231;40.090;18.348;2023-04-08T15:35:05;6.35;;;3.03;;
65581;SDS011;52231;40.090;18.348;2023-04-08T15:37:34;9.93;;;3.42;;
65581;SDS011;52231;40.090;18.348;2023-04-08T15:42:31;10.05;;;4.10;;
65581;SDS011;52231;40.090;18.348;2023-04-08T15:45:02;7.53;;;3.45;;
65581;SDS011;52231;40.090;18.348;2023-04-08T15:47:31;6.82;;;2.90;;
65581;SDS011;52231;40.090;18.348;2023-04-08T15:50:01;6.55;;;2.85;;
65581;SDS011;52231;40.090;18.348;2023-04-08T15:52:30;7.68;;;3.08;;
65581;SDS011;52231;40.090;18.348;2023-04-08T15:54:59;7.03;;;2.80;;
65581;SDS011;52231;40.090;18.348;2023-04-08T15:57:29;8.68;;;3.03;;
65581;SDS011;52231;40.090;18.348;2023-04-08T15:59:58;7.50;;;3.00;;
65581;SDS011;52231;40.090;18.348;2023-04-08T16:02:32;7.47;;;2.83;;
65581;SDS011;52231;40.090;18.348;2023-04-08T16:05:01;5.88;;;3.05;;
65581;SDS011;52231;40.090;18.348;2023-04-08T16:09:58;8.32;;;3.30;;
65581;SDS011;52231;40.090;18.348;2023-04-08T16:12:27;10.10;;;4.22;;
65581;SDS011;52231;40.090;18.348;2023-04-08T16:14:55;8.25;;;3.53;;
65581;SDS011;52231;40.090;18.348;2023-04-08T16:17:24;7.20;;;2.90;;
65581;SDS011;52231;40.090;18.348;2023-04-08T16:19:53;8.80;;;3.42;;
65581;SDS011;52231;40.090;18.348;2023-04-08T16:22:22;9.13;;;3.35;;
65581;SDS011;52231;40.090;18.348;2023-04-08T16:24:50;7.45;;;3.28;;